Terminal Aerodrome Forecast
Issued by NWS Albuquerque, NM

Home | Current Version | Previous Version | Text Only | Print | Product List | Glossary On
Versions: 1 2 3 4 5 6 7 8 9 10 11 12 13
000
FTUS45 KABQ 230000 AAA
TAFABQ
TAF AMD
KABQ 230052Z 2301/2324 35014G22KT P6SM SCT050 BKN100
     FM230900 36012G20KT P6SM SCT040 SCT060
     FM231500 35008KT P6SM FEW040 SCT070=

USA.gov is the U.S. government's official web portal to all federal, state and local government web resources and services.